sensor_id;sensor_type;location;lat;lon;timestamp;P1;durP1;ratioP1;P2;durP2;ratioP2
22378;SDS011;11357;49.990;7.370;2023-05-02T00:01:54;1999.90;;;627.30;;
22378;SDS011;11357;49.990;7.370;2023-05-02T00:04:19;1936.10;;;513.27;;
22378;SDS011;11357;49.990;7.370;2023-05-02T00:06:45;1999.90;;;858.47;;
22378;SDS011;11357;49.990;7.370;2023-05-02T00:09:11;1992.20;;;839.03;;
22378;SDS011;11357;49.990;7.370;2023-05-02T00:11:38;1999.90;;;867.73;;
22378;SDS011;11357;49.990;7.370;2023-05-02T00:14:03;1836.90;;;481.73;;
22378;SDS011;11357;49.990;7.370;2023-05-02T00:16:29;1951.00;;;828.20;;
22378;SDS011;11357;49.990;7.370;2023-05-02T00:18:55;1814.27;;;482.77;;
22378;SDS011;11357;49.990;7.370;2023-05-02T00:21:20;1999.90;;;595.57;;
22378;SDS011;11357;49.990;7.370;2023-05-02T00:23:46;1999.90;;;596.07;;
22378;SDS011;11357;49.990;7.370;2023-05-02T00:26:12;1999.90;;;575.07;;
22378;SDS011;11357;49.990;7.370;2023-05-02T00:28:37;1999.90;;;640.37;;
22378;SDS011;11357;49.990;7.370;2023-05-02T00:31:04;1999.90;;;595.90;;
22378;SDS011;11357;49.990;7.370;2023-05-02T00:33:30;1993.87;;;530.27;;
22378;SDS011;11357;49.990;7.370;2023-05-02T00:35:55;1892.70;;;502.83;;
22378;SDS011;11357;49.990;7.370;2023-05-02T00:38:21;1938.70;;;551.07;;
22378;SDS011;11357;49.990;7.370;2023-05-02T00:40:47;1885.90;;;497.63;;
22378;SDS011;11357;49.990;7.370;2023-05-02T00:43:15;1993.90;;;526.00;;
22378;SDS011;11357;49.990;7.370;2023-05-02T00:45:41;1957.77;;;532.50;;
22378;SDS011;11357;49.990;7.370;2023-05-02T00:48:08;1909.63;;;822.67;;
22378;SDS011;11357;49.990;7.370;2023-05-02T00:50:36;1907.17;;;530.13;;
22378;SDS011;11357;49.990;7.370;2023-05-02T00:53:04;1999.90;;;849.93;;
22378;SDS011;11357;49.990;7.370;2023-05-02T00:55:31;1806.80;;;479.57;;
22378;SDS011;11357;49.990;7.370;2023-05-02T00:57:58;1999.90;;;621.23;;
22378;SDS011;11357;49.990;7.370;2023-05-02T01:03:55;1999.90;;;615.00;;
22378;SDS011;11357;49.990;7.370;2023-05-02T01:06:14;1999.90;;;695.70;;
22378;SDS011;11357;49.990;7.370;2023-05-02T01:14:32;1999.90;;;733.50;;
22378;SDS011;11357;49.990;7.370;2023-05-02T01:17:01;1999.90;;;790.17;;
22378;SDS011;11357;49.990;7.370;2023-05-02T01:19:36;1999.90;;;815.70;;
22378;SDS011;11357;49.990;7.370;2023-05-02T01:22:08;1999.90;;;783.93;;
22378;SDS011;11357;49.990;7.370;2023-05-02T01:24:49;1999.90;;;837.93;;
22378;SDS011;11357;49.990;7.370;2023-05-02T01:30:11;1999.90;;;778.43;;
22378;SDS011;11357;49.990;7.370;2023-05-02T01:32:39;1999.90;;;752.20;;
22378;SDS011;11357;49.990;7.370;2023-05-02T01:35:07;1999.90;;;824.00;;
22378;SDS011;11357;49.990;7.370;2023-05-02T01:37:35;1999.90;;;734.20;;
22378;SDS011;11357;49.990;7.370;2023-05-02T01:40:02;1999.90;;;699.97;;
22378;SDS011;11357;49.990;7.370;2023-05-02T01:42:30;1999.90;;;716.30;;
22378;SDS011;11357;49.990;7.370;2023-05-02T01:45:00;1999.90;;;722.43;;
22378;SDS011;11357;49.990;7.370;2023-05-02T01:47:28;1999.90;;;728.73;;
22378;SDS011;11357;49.990;7.370;2023-05-02T01:49:58;1999.90;;;783.13;;
22378;SDS011;11357;49.990;7.370;2023-05-02T01:52:25;1999.90;;;830.50;;
22378;SDS011;11357;49.990;7.370;2023-05-02T01:54:52;1999.90;;;864.00;;
22378;SDS011;11357;49.990;7.370;2023-05-02T01:57:21;1999.90;;;865.67;;
22378;SDS011;11357;49.990;7.370;2023-05-02T01:59:47;1999.90;;;852.70;;
22378;SDS011;11357;49.990;7.370;2023-05-02T02:02:15;1999.90;;;866.50;;
22378;SDS011;11357;49.990;7.370;2023-05-02T02:04:41;1999.90;;;886.20;;
22378;SDS011;11357;49.990;7.370;2023-05-02T02:07:10;1999.90;;;866.97;;
22378;SDS011;11357;49.990;7.370;2023-05-02T02:09:37;1999.90;;;844.30;;
22378;SDS011;11357;49.990;7.370;2023-05-02T02:12:05;1999.90;;;788.43;;
22378;SDS011;11357;49.990;7.370;2023-05-02T02:14:35;1999.90;;;800.27;;
22378;SDS011;11357;49.990;7.370;2023-05-02T02:17:21;1999.90;;;737.90;;
22378;SDS011;11357;49.990;7.370;2023-05-02T02:19:52;1999.90;;;722.10;;
22378;SDS011;11357;49.990;7.370;2023-05-02T02:22:20;1999.90;;;864.57;;
22378;SDS011;11357;49.990;7.370;2023-05-02T02:24:48;1999.90;;;853.53;;
22378;SDS011;11357;49.990;7.370;2023-05-02T02:27:15;1999.90;;;818.77;;
22378;SDS011;11357;49.990;7.370;2023-05-02T02:29:41;1999.90;;;824.93;;
22378;SDS011;11357;49.990;7.370;2023-05-02T02:32:07;1999.90;;;846.20;;
22378;SDS011;11357;49.990;7.370;2023-05-02T02:34:32;1999.90;;;885.37;;
22378;SDS011;11357;49.990;7.370;2023-05-02T02:36:59;1999.90;;;845.80;;
22378;SDS011;11357;49.990;7.370;2023-05-02T02:48:36;1999.90;;;846.73;;
22378;SDS011;11357;49.990;7.370;2023-05-02T02:53:32;1999.90;;;777.53;;
22378;SDS011;11357;49.990;7.370;2023-05-02T02:56:14;1999.90;;;808.27;;
22378;SDS011;11357;49.990;7.370;2023-05-02T02:58:56;1999.90;;;806.70;;
22378;SDS011;11357;49.990;7.370;2023-05-02T03:01:31;1999.90;;;769.03;;
22378;SDS011;11357;49.990;7.370;2023-05-02T03:04:00;1999.90;;;800.43;;
22378;SDS011;11357;49.990;7.370;2023-05-02T03:06:29;1999.90;;;816.37;;
22378;SDS011;11357;49.990;7.370;2023-05-02T03:08:55;1999.90;;;793.50;;
22378;SDS011;11357;49.990;7.370;2023-05-02T03:11:21;1999.90;;;869.73;;
22378;SDS011;11357;49.990;7.370;2023-05-02T03:13:47;1999.90;;;816.03;;
22378;SDS011;11357;49.990;7.370;2023-05-02T03:18:53;1999.90;;;694.03;;
22378;SDS011;11357;49.990;7.370;2023-05-02T03:21:19;1999.90;;;797.87;;
22378;SDS011;11357;49.990;7.370;2023-05-02T03:23:45;1999.90;;;857.07;;
22378;SDS011;11357;49.990;7.370;2023-05-02T03:26:10;1999.90;;;861.50;;
22378;SDS011;11357;49.990;7.370;2023-05-02T03:28:36;1999.90;;;869.83;;
22378;SDS011;11357;49.990;7.370;2023-05-02T03:31:02;1999.90;;;834.20;;
22378;SDS011;11357;49.990;7.370;2023-05-02T03:33:27;1999.90;;;791.07;;
22378;SDS011;11357;49.990;7.370;2023-05-02T03:35:53;1999.90;;;814.30;;
22378;SDS011;11357;49.990;7.370;2023-05-02T03:38:18;1999.90;;;815.73;;
22378;SDS011;11357;49.990;7.370;2023-05-02T03:40:44;1999.90;;;837.17;;
22378;SDS011;11357;49.990;7.370;2023-05-02T03:43:10;1999.90;;;804.27;;
22378;SDS011;11357;49.990;7.370;2023-05-02T03:45:35;1999.90;;;817.60;;
22378;SDS011;11357;49.990;7.370;2023-05-02T03:48:01;1999.90;;;829.50;;
22378;SDS011;11357;49.990;7.370;2023-05-02T03:50:27;1999.90;;;818.70;;
22378;SDS011;11357;49.990;7.370;2023-05-02T03:52:53;1999.90;;;847.17;;
22378;SDS011;11357;49.990;7.370;2023-05-02T03:55:18;1999.90;;;846.77;;
22378;SDS011;11357;49.990;7.370;2023-05-02T03:57:45;1999.90;;;822.70;;
22378;SDS011;11357;49.990;7.370;2023-05-02T04:00:11;1999.90;;;859.87;;
22378;SDS011;11357;49.990;7.370;2023-05-02T04:02:37;1999.90;;;849.40;;
22378;SDS011;11357;49.990;7.370;2023-05-02T04:05:02;1999.90;;;854.90;;
22378;SDS011;11357;49.990;7.370;2023-05-02T04:07:28;1999.90;;;853.23;;
22378;SDS011;11357;49.990;7.370;2023-05-02T04:09:54;1999.90;;;894.57;;
22378;SDS011;11357;49.990;7.370;2023-05-02T04:12:19;1999.90;;;916.67;;
22378;SDS011;11357;49.990;7.370;2023-05-02T04:14:45;1999.90;;;882.40;;
22378;SDS011;11357;49.990;7.370;2023-05-02T04:17:11;1999.90;;;891.53;;
22378;SDS011;11357;49.990;7.370;2023-05-02T04:19:37;1999.90;;;918.43;;
22378;SDS011;11357;49.990;7.370;2023-05-02T04:22:03;1999.90;;;907.33;;
22378;SDS011;11357;49.990;7.370;2023-05-02T04:24:28;1999.90;;;903.37;;
22378;SDS011;11357;49.990;7.370;2023-05-02T04:26:54;1999.90;;;926.10;;
22378;SDS011;11357;49.990;7.370;2023-05-02T04:29:20;1999.90;;;925.97;;
22378;SDS011;11357;49.990;7.370;2023-05-02T04:31:45;1999.90;;;887.00;;
22378;SDS011;11357;49.990;7.370;2023-05-02T04:34:11;1999.90;;;938.67;;
22378;SDS011;11357;49.990;7.370;2023-05-02T04:36:37;1999.90;;;901.87;;
22378;SDS011;11357;49.990;7.370;2023-05-02T04:39:02;1999.90;;;903.37;;
22378;SDS011;11357;49.990;7.370;2023-05-02T04:41:31;1999.90;;;921.10;;
22378;SDS011;11357;49.990;7.370;2023-05-02T04:43:57;1999.90;;;907.33;;
22378;SDS011;11357;49.990;7.370;2023-05-02T04:46:23;1999.90;;;922.40;;
22378;SDS011;11357;49.990;7.370;2023-05-02T04:48:48;1999.90;;;933.00;;
22378;SDS011;11357;49.990;7.370;2023-05-02T04:51:14;1999.90;;;918.13;;
22378;SDS011;11357;49.990;7.370;2023-05-02T04:53:40;1999.90;;;914.33;;
22378;SDS011;11357;49.990;7.370;2023-05-02T04:56:05;1999.90;;;902.47;;
22378;SDS011;11357;49.990;7.370;2023-05-02T04:58:31;1999.90;;;912.63;;
22378;SDS011;11357;49.990;7.370;2023-05-02T05:00:59;1999.90;;;927.30;;
22378;SDS011;11357;49.990;7.370;2023-05-02T05:03:26;1999.90;;;918.10;;
22378;SDS011;11357;49.990;7.370;2023-05-02T05:05:53;1999.90;;;885.13;;
22378;SDS011;11357;49.990;7.370;2023-05-02T05:08:19;1999.90;;;943.17;;
22378;SDS011;11357;49.990;7.370;2023-05-02T05:10:45;1999.90;;;902.20;;
22378;SDS011;11357;49.990;7.370;2023-05-02T05:13:11;1999.90;;;900.67;;
22378;SDS011;11357;49.990;7.370;2023-05-02T05:15:37;1999.90;;;929.57;;
22378;SDS011;11357;49.990;7.370;2023-05-02T05:18:04;1999.90;;;796.40;;
22378;SDS011;11357;49.990;7.370;2023-05-02T05:20:31;1999.90;;;933.93;;
22378;SDS011;11357;49.990;7.370;2023-05-02T05:22:57;1999.90;;;919.47;;
22378;SDS011;11357;49.990;7.370;2023-05-02T05:25:24;1999.90;;;904.27;;
22378;SDS011;11357;49.990;7.370;2023-05-02T05:27:51;1999.90;;;924.97;;
22378;SDS011;11357;49.990;7.370;2023-05-02T05:30:17;1999.90;;;947.77;;
22378;SDS011;11357;49.990;7.370;2023-05-02T05:32:43;1999.90;;;906.70;;
22378;SDS011;11357;49.990;7.370;2023-05-02T05:35:08;1999.90;;;903.00;;
22378;SDS011;11357;49.990;7.370;2023-05-02T05:37:34;1999.90;;;924.17;;
22378;SDS011;11357;49.990;7.370;2023-05-02T05:40:03;1999.90;;;906.93;;
22378;SDS011;11357;49.990;7.370;2023-05-02T05:42:31;1999.90;;;921.37;;
22378;SDS011;11357;49.990;7.370;2023-05-02T05:44:56;1999.90;;;892.87;;
22378;SDS011;11357;49.990;7.370;2023-05-02T05:47:22;1999.90;;;903.17;;
22378;SDS011;11357;49.990;7.370;2023-05-02T05:49:51;1999.90;;;911.07;;
22378;SDS011;11357;49.990;7.370;2023-05-02T05:52:17;1999.90;;;898.23;;
22378;SDS011;11357;49.990;7.370;2023-05-02T05:54:43;1999.90;;;913.03;;
22378;SDS011;11357;49.990;7.370;2023-05-02T05:57:09;1999.90;;;906.10;;
22378;SDS011;11357;49.990;7.370;2023-05-02T05:59:34;1999.90;;;890.83;;
22378;SDS011;11357;49.990;7.370;2023-05-02T06:02:00;1999.90;;;892.77;;
22378;SDS011;11357;49.990;7.370;2023-05-02T06:04:26;1999.90;;;878.83;;
22378;SDS011;11357;49.990;7.370;2023-05-02T06:06:51;1999.90;;;880.00;;
22378;SDS011;11357;49.990;7.370;2023-05-02T06:09:18;1999.90;;;881.03;;
22378;SDS011;11357;49.990;7.370;2023-05-02T06:11:43;1999.90;;;883.77;;
22378;SDS011;11357;49.990;7.370;2023-05-02T06:14:09;1999.90;;;857.47;;
22378;SDS011;11357;49.990;7.370;2023-05-02T06:16:35;1999.90;;;868.80;;
22378;SDS011;11357;49.990;7.370;2023-05-02T06:19:01;1999.90;;;891.73;;
22378;SDS011;11357;49.990;7.370;2023-05-02T06:21:26;1999.90;;;916.23;;
22378;SDS011;11357;49.990;7.370;2023-05-02T06:23:52;1999.90;;;819.13;;
22378;SDS011;11357;49.990;7.370;2023-05-02T06:26:17;1999.90;;;799.73;;
22378;SDS011;11357;49.990;7.370;2023-05-02T06:28:43;1999.90;;;807.70;;
22378;SDS011;11357;49.990;7.370;2023-05-02T06:31:09;1999.90;;;870.17;;
22378;SDS011;11357;49.990;7.370;2023-05-02T06:33:35;1999.90;;;865.03;;
22378;SDS011;11357;49.990;7.370;2023-05-02T06:36:01;1999.90;;;880.40;;
22378;SDS011;11357;49.990;7.370;2023-05-02T06:38:27;1999.90;;;904.20;;
22378;SDS011;11357;49.990;7.370;2023-05-02T06:40:52;1999.90;;;858.53;;
22378;SDS011;11357;49.990;7.370;2023-05-02T06:43:19;1999.90;;;834.70;;
22378;SDS011;11357;49.990;7.370;2023-05-02T06:45:45;1999.90;;;768.60;;
22378;SDS011;11357;49.990;7.370;2023-05-02T06:48:11;1999.90;;;843.83;;
22378;SDS011;11357;49.990;7.370;2023-05-02T06:50:37;1999.90;;;792.70;;
22378;SDS011;11357;49.990;7.370;2023-05-02T06:53:05;1999.90;;;764.00;;
22378;SDS011;11357;49.990;7.370;2023-05-02T06:55:32;1999.90;;;772.83;;
22378;SDS011;11357;49.990;7.370;2023-05-02T06:57:58;1999.90;;;864.27;;
22378;SDS011;11357;49.990;7.370;2023-05-02T07:00:24;1999.90;;;845.77;;
22378;SDS011;11357;49.990;7.370;2023-05-02T07:02:49;1999.90;;;786.27;;
22378;SDS011;11357;49.990;7.370;2023-05-02T07:05:15;1999.90;;;803.53;;
22378;SDS011;11357;49.990;7.370;2023-05-02T07:07:41;1999.90;;;859.37;;
22378;SDS011;11357;49.990;7.370;2023-05-02T07:10:07;1999.90;;;857.17;;
22378;SDS011;11357;49.990;7.370;2023-05-02T07:12:33;1999.90;;;852.90;;
22378;SDS011;11357;49.990;7.370;2023-05-02T07:14:59;1999.90;;;811.03;;
22378;SDS011;11357;49.990;7.370;2023-05-02T07:17:25;1999.90;;;860.47;;
22378;SDS011;11357;49.990;7.370;2023-05-02T07:19:52;1999.90;;;862.00;;
22378;SDS011;11357;49.990;7.370;2023-05-02T07:22:18;1999.90;;;905.20;;
22378;SDS011;11357;49.990;7.370;2023-05-02T07:24:43;1999.90;;;874.37;;
22378;SDS011;11357;49.990;7.370;2023-05-02T07:27:09;1999.90;;;848.90;;
22378;SDS011;11357;49.990;7.370;2023-05-02T07:29:36;1999.90;;;825.77;;
22378;SDS011;11357;49.990;7.370;2023-05-02T07:32:02;1999.90;;;870.73;;
22378;SDS011;11357;49.990;7.370;2023-05-02T07:34:27;1999.90;;;883.27;;
22378;SDS011;11357;49.990;7.370;2023-05-02T07:36:54;1999.90;;;903.00;;
22378;SDS011;11357;49.990;7.370;2023-05-02T07:39:20;1999.90;;;922.93;;
22378;SDS011;11357;49.990;7.370;2023-05-02T07:41:46;1999.90;;;916.67;;
22378;SDS011;11357;49.990;7.370;2023-05-02T07:44:18;1999.90;;;936.13;;
22378;SDS011;11357;49.990;7.370;2023-05-02T07:46:45;1999.90;;;954.90;;
22378;SDS011;11357;49.990;7.370;2023-05-02T07:49:11;1999.90;;;541.67;;
22378;SDS011;11357;49.990;7.370;2023-05-02T07:51:37;1999.90;;;572.17;;
22378;SDS011;11357;49.990;7.370;2023-05-02T07:54:16;1999.90;;;840.27;;
22378;SDS011;11357;49.990;7.370;2023-05-02T07:56:43;1999.90;;;867.27;;
22378;SDS011;11357;49.990;7.370;2023-05-02T07:59:09;1999.90;;;914.83;;
22378;SDS011;11357;49.990;7.370;2023-05-02T08:01:35;1999.90;;;925.90;;
22378;SDS011;11357;49.990;7.370;2023-05-02T08:04:01;1999.90;;;858.07;;
22378;SDS011;11357;49.990;7.370;2023-05-02T08:06:28;1999.90;;;603.17;;
22378;SDS011;11357;49.990;7.370;2023-05-02T08:08:54;1999.90;;;681.87;;
22378;SDS011;11357;49.990;7.370;2023-05-02T08:11:20;1999.90;;;598.37;;
22378;SDS011;11357;49.990;7.370;2023-05-02T08:13:49;1999.90;;;724.57;;
22378;SDS011;11357;49.990;7.370;2023-05-02T08:16:15;1999.90;;;716.17;;
22378;SDS011;11357;49.990;7.370;2023-05-02T08:18:41;1999.90;;;810.40;;
22378;SDS011;11357;49.990;7.370;2023-05-02T08:21:07;1999.90;;;750.90;;
22378;SDS011;11357;49.990;7.370;2023-05-02T08:23:32;1578.53;;;375.57;;
22378;SDS011;11357;49.990;7.370;2023-05-02T08:25:58;1999.90;;;705.17;;
22378;SDS011;11357;49.990;7.370;2023-05-02T08:28:24;1999.90;;;814.43;;
22378;SDS011;11357;49.990;7.370;2023-05-02T08:30:50;1999.90;;;586.20;;
22378;SDS011;11357;49.990;7.370;2023-05-02T08:33:15;1999.90;;;826.50;;
22378;SDS011;11357;49.990;7.370;2023-05-02T08:35:41;1999.90;;;763.90;;
22378;SDS011;11357;49.990;7.370;2023-05-02T08:38:07;1999.90;;;714.63;;
22378;SDS011;11357;49.990;7.370;2023-05-02T08:40:36;1999.90;;;999.90;;
22378;SDS011;11357;49.990;7.370;2023-05-02T08:43:03;1999.90;;;999.90;;
22378;SDS011;11357;49.990;7.370;2023-05-02T08:45:30;1999.90;;;780.80;;
22378;SDS011;11357;49.990;7.370;2023-05-02T08:48:06;1999.90;;;710.40;;
22378;SDS011;11357;49.990;7.370;2023-05-02T08:50:39;1895.27;;;821.37;;
22378;SDS011;11357;49.990;7.370;2023-05-02T08:53:08;1999.90;;;829.87;;
22378;SDS011;11357;49.990;7.370;2023-05-02T08:55:36;1999.90;;;670.40;;
22378;SDS011;11357;49.990;7.370;2023-05-02T08:58:05;1999.90;;;999.90;;
22378;SDS011;11357;49.990;7.370;2023-05-02T09:00:33;1999.90;;;772.70;;
22378;SDS011;11357;49.990;7.370;2023-05-02T09:05:38;1999.90;;;824.77;;
22378;SDS011;11357;49.990;7.370;2023-05-02T09:08:06;1999.90;;;717.47;;
22378;SDS011;11357;49.990;7.370;2023-05-02T09:10:35;1999.90;;;801.07;;
22378;SDS011;11357;49.990;7.370;2023-05-02T09:16:16;222.00;;;156.23;;
22378;SDS011;11357;49.990;7.370;2023-05-02T09:18:56;780.47;;;555.43;;
22378;SDS011;11357;49.990;7.370;2023-05-02T09:21:34;204.73;;;189.53;;
22378;SDS011;11357;49.990;7.370;2023-05-02T09:24:01;450.70;;;410.00;;
22378;SDS011;11357;49.990;7.370;2023-05-02T09:26:38;560.83;;;504.77;;
22378;SDS011;11357;49.990;7.370;2023-05-02T09:29:04;453.30;;;414.90;;
22378;SDS011;11357;49.990;7.370;2023-05-02T09:31:31;48.83;;;44.00;;
22378;SDS011;11357;49.990;7.370;2023-05-02T09:34:06;22.73;;;16.57;;
22378;SDS011;11357;49.990;7.370;2023-05-02T09:36:41;37.70;;;33.93;;
22378;SDS011;11357;49.990;7.370;2023-05-02T09:39:08;15.47;;;10.03;;
22378;SDS011;11357;49.990;7.370;2023-05-02T09:41:39;19.93;;;11.87;;
22378;SDS011;11357;49.990;7.370;2023-05-02T09:44:08;20.20;;;12.97;;
22378;SDS011;11357;49.990;7.370;2023-05-02T09:46:39;21.70;;;12.63;;
22378;SDS011;11357;49.990;7.370;2023-05-02T09:49:05;23.70;;;14.03;;
22378;SDS011;11357;49.990;7.370;2023-05-02T09:51:32;26.00;;;17.90;;
22378;SDS011;11357;49.990;7.370;2023-05-02T09:53:57;22.23;;;13.40;;
22378;SDS011;11357;49.990;7.370;2023-05-02T09:56:23;22.17;;;16.35;;
22378;SDS011;11357;49.990;7.370;2023-05-02T09:58:49;15.07;;;9.55;;
22378;SDS011;11357;49.990;7.370;2023-05-02T10:01:15;21.43;;;11.70;;
22378;SDS011;11357;49.990;7.370;2023-05-02T10:03:41;22.13;;;13.87;;
22378;SDS011;11357;49.990;7.370;2023-05-02T10:06:11;21.90;;;13.55;;
22378;SDS011;11357;49.990;7.370;2023-05-02T10:08:37;23.45;;;14.98;;
22378;SDS011;11357;49.990;7.370;2023-05-02T10:11:05;24.90;;;16.63;;
22378;SDS011;11357;49.990;7.370;2023-05-02T10:13:32;21.70;;;13.02;;
22378;SDS011;11357;49.990;7.370;2023-05-02T10:16:01;20.95;;;14.93;;
22378;SDS011;11357;49.990;7.370;2023-05-02T10:18:37;27.45;;;19.50;;
22378;SDS011;11357;49.990;7.370;2023-05-02T10:21:12;15.40;;;9.98;;
22378;SDS011;11357;49.990;7.370;2023-05-02T10:23:42;15.83;;;11.17;;
22378;SDS011;11357;49.990;7.370;2023-05-02T10:26:13;17.08;;;10.75;;
22378;SDS011;11357;49.990;7.370;2023-05-02T10:28:40;13.07;;;9.73;;
22378;SDS011;11357;49.990;7.370;2023-05-02T10:31:08;15.73;;;8.77;;
22378;SDS011;11357;49.990;7.370;2023-05-02T10:33:35;10.18;;;6.80;;
22378;SDS011;11357;49.990;7.370;2023-05-02T10:36:02;14.27;;;8.55;;
22378;SDS011;11357;49.990;7.370;2023-05-02T10:38:28;11.23;;;7.37;;
22378;SDS011;11357;49.990;7.370;2023-05-02T10:41:01;9.27;;;6.88;;
22378;SDS011;11357;49.990;7.370;2023-05-02T10:43:32;10.85;;;7.18;;
22378;SDS011;11357;49.990;7.370;2023-05-02T10:45:59;9.60;;;5.93;;
22378;SDS011;11357;49.990;7.370;2023-05-02T10:48:27;7.70;;;5.18;;
22378;SDS011;11357;49.990;7.370;2023-05-02T10:53:26;12.32;;;8.45;;
22378;SDS011;11357;49.990;7.370;2023-05-02T10:58:41;11.48;;;7.28;;
22378;SDS011;11357;49.990;7.370;2023-05-02T11:03:55;12.27;;;8.63;;
22378;SDS011;11357;49.990;7.370;2023-05-02T11:06:28;17.50;;;13.15;;
22378;SDS011;11357;49.990;7.370;2023-05-02T11:11:55;11.27;;;7.03;;
22378;SDS011;11357;49.990;7.370;2023-05-02T11:19:22;17.13;;;15.68;;
22378;SDS011;11357;49.990;7.370;2023-05-02T11:21:49;8.15;;;5.97;;
22378;SDS011;11357;49.990;7.370;2023-05-02T11:30:02;12.70;;;11.55;;
22378;SDS011;11357;49.990;7.370;2023-05-02T11:35:26;105.80;;;96.33;;
22378;SDS011;11357;49.990;7.370;2023-05-02T11:37:52;185.98;;;170.48;;
22378;SDS011;11357;49.990;7.370;2023-05-02T11:40:18;38.40;;;36.23;;
22378;SDS011;11357;49.990;7.370;2023-05-02T11:42:44;104.80;;;95.03;;
22378;SDS011;11357;49.990;7.370;2023-05-02T11:45:10;154.33;;;139.70;;
22378;SDS011;11357;49.990;7.370;2023-05-02T11:47:35;15.00;;;13.70;;
22378;SDS011;11357;49.990;7.370;2023-05-02T11:50:05;4.37;;;3.97;;
22378;SDS011;11357;49.990;7.370;2023-05-02T11:52:38;2.50;;;2.20;;
22378;SDS011;11357;49.990;7.370;2023-05-02T11:55:06;4.90;;;2.60;;
22378;SDS011;11357;49.990;7.370;2023-05-02T11:57:34;2.70;;;2.27;;
22378;SDS011;11357;49.990;7.370;2023-05-02T12:00:00;3.10;;;1.93;;
22378;SDS011;11357;49.990;7.370;2023-05-02T12:02:37;3.93;;;2.20;;
22378;SDS011;11357;49.990;7.370;2023-05-02T12:05:05;1.95;;;1.60;;
22378;SDS011;11357;49.990;7.370;2023-05-02T12:10:08;1.90;;;1.58;;
22378;SDS011;11357;49.990;7.370;2023-05-02T12:12:34;2.50;;;1.70;;
22378;SDS011;11357;49.990;7.370;2023-05-02T12:15:02;1.70;;;1.60;;
22378;SDS011;11357;49.990;7.370;2023-05-02T12:17:29;1.98;;;1.40;;
22378;SDS011;11357;49.990;7.370;2023-05-02T12:19:56;2.20;;;1.30;;
22378;SDS011;11357;49.990;7.370;2023-05-02T12:22:22;1.80;;;1.40;;
22378;SDS011;11357;49.990;7.370;2023-05-02T12:24:51;2.20;;;1.30;;
22378;SDS011;11357;49.990;7.370;2023-05-02T12:27:19;1.85;;;1.40;;
22378;SDS011;11357;49.990;7.370;2023-05-02T12:29:45;4.43;;;1.92;;
22378;SDS011;11357;49.990;7.370;2023-05-02T12:32:12;2.30;;;1.13;;
22378;SDS011;11357;49.990;7.370;2023-05-02T12:34:39;2.15;;;1.30;;
22378;SDS011;11357;49.990;7.370;2023-05-02T12:37:06;3.90;;;1.90;;
22378;SDS011;11357;49.990;7.370;2023-05-02T12:39:33;5.70;;;2.00;;
22378;SDS011;11357;49.990;7.370;2023-05-02T12:41:58;4.00;;;3.05;;
22378;SDS011;11357;49.990;7.370;2023-05-02T12:44:37;7.85;;;4.90;;
22378;SDS011;11357;49.990;7.370;2023-05-02T12:47:04;7.03;;;4.63;;
22378;SDS011;11357;49.990;7.370;2023-05-02T12:49:30;5.22;;;4.38;;
22378;SDS011;11357;49.990;7.370;2023-05-02T12:51:55;7.60;;;4.82;;
22378;SDS011;11357;49.990;7.370;2023-05-02T12:54:21;6.50;;;4.50;;
22378;SDS011;11357;49.990;7.370;2023-05-02T12:56:47;5.38;;;3.97;;
22378;SDS011;11357;49.990;7.370;2023-05-02T12:59:28;9.18;;;3.95;;
22378;SDS011;11357;49.990;7.370;2023-05-02T13:01:55;8.32;;;3.97;;
22378;SDS011;11357;49.990;7.370;2023-05-02T13:04:21;4.32;;;3.10;;
22378;SDS011;11357;49.990;7.370;2023-05-02T13:06:58;5.15;;;3.00;;
22378;SDS011;11357;49.990;7.370;2023-05-02T13:09:24;4.40;;;2.95;;
22378;SDS011;11357;49.990;7.370;2023-05-02T13:11:51;3.70;;;2.70;;
22378;SDS011;11357;49.990;7.370;2023-05-02T13:14:18;6.47;;;3.25;;
22378;SDS011;11357;49.990;7.370;2023-05-02T13:16:43;3.78;;;2.60;;
22378;SDS011;11357;49.990;7.370;2023-05-02T13:19:09;4.65;;;2.72;;
22378;SDS011;11357;49.990;7.370;2023-05-02T13:21:35;3.28;;;2.53;;
22378;SDS011;11357;49.990;7.370;2023-05-02T13:24:01;3.70;;;2.50;;
22378;SDS011;11357;49.990;7.370;2023-05-02T13:26:28;4.82;;;2.83;;
22378;SDS011;11357;49.990;7.370;2023-05-02T13:28:54;3.50;;;2.83;;
22378;SDS011;11357;49.990;7.370;2023-05-02T13:31:20;4.60;;;3.13;;
22378;SDS011;11357;49.990;7.370;2023-05-02T13:33:46;7.32;;;5.35;;
22378;SDS011;11357;49.990;7.370;2023-05-02T13:36:11;8.40;;;4.78;;
22378;SDS011;11357;49.990;7.370;2023-05-02T13:38:37;13.50;;;12.10;;
22378;SDS011;11357;49.990;7.370;2023-05-02T13:41:03;7.43;;;5.13;;
22378;SDS011;11357;49.990;7.370;2023-05-02T13:43:29;7.57;;;5.05;;
22378;SDS011;11357;49.990;7.370;2023-05-02T13:45:54;6.82;;;4.35;;
22378;SDS011;11357;49.990;7.370;2023-05-02T13:48:20;5.65;;;4.32;;
22378;SDS011;11357;49.990;7.370;2023-05-02T13:50:46;6.88;;;5.47;;
22378;SDS011;11357;49.990;7.370;2023-05-02T13:53:11;6.43;;;4.80;;
22378;SDS011;11357;49.990;7.370;2023-05-02T13:55:37;6.95;;;4.55;;
22378;SDS011;11357;49.990;7.370;2023-05-02T13:58:03;11.20;;;4.55;;
22378;SDS011;11357;49.990;7.370;2023-05-02T14:00:28;4.63;;;3.80;;
22378;SDS011;11357;49.990;7.370;2023-05-02T14:02:54;6.43;;;3.80;;
22378;SDS011;11357;49.990;7.370;2023-05-02T14:05:20;4.82;;;3.50;;
22378;SDS011;11357;49.990;7.370;2023-05-02T14:07:45;4.40;;;3.20;;
22378;SDS011;11357;49.990;7.370;2023-05-02T14:10:11;6.72;;;3.42;;
22378;SDS011;11357;49.990;7.370;2023-05-02T14:12:37;5.10;;;3.58;;
22378;SDS011;11357;49.990;7.370;2023-05-02T14:15:02;7.38;;;3.80;;
22378;SDS011;11357;49.990;7.370;2023-05-02T14:17:28;4.55;;;3.85;;
22378;SDS011;11357;49.990;7.370;2023-05-02T14:19:55;6.57;;;4.50;;
22378;SDS011;11357;49.990;7.370;2023-05-02T14:22:21;6.75;;;4.13;;
22378;SDS011;11357;49.990;7.370;2023-05-02T14:24:46;9.30;;;8.30;;
22378;SDS011;11357;49.990;7.370;2023-05-02T14:27:12;7.70;;;4.80;;
22378;SDS011;11357;49.990;7.370;2023-05-02T14:29:43;5.78;;;4.10;;
22378;SDS011;11357;49.990;7.370;2023-05-02T14:32:09;5.90;;;4.43;;
22378;SDS011;11357;49.990;7.370;2023-05-02T14:34:35;7.20;;;4.55;;
22378;SDS011;11357;49.990;7.370;2023-05-02T14:37:00;5.10;;;4.13;;
22378;SDS011;11357;49.990;7.370;2023-05-02T14:39:26;10.45;;;4.70;;
22378;SDS011;11357;49.990;7.370;2023-05-02T14:41:52;9.27;;;5.13;;
22378;SDS011;11357;49.990;7.370;2023-05-02T14:44:17;5.47;;;4.72;;
22378;SDS011;11357;49.990;7.370;2023-05-02T14:46:43;8.38;;;5.57;;
22378;SDS011;11357;49.990;7.370;2023-05-02T14:49:09;9.38;;;5.45;;
22378;SDS011;11357;49.990;7.370;2023-05-02T14:51:37;10.10;;;4.63;;
22378;SDS011;11357;49.990;7.370;2023-05-02T14:54:04;15.00;;;5.70;;
22378;SDS011;11357;49.990;7.370;2023-05-02T14:56:30;14.47;;;9.90;;
22378;SDS011;11357;49.990;7.370;2023-05-02T14:58:56;9.15;;;6.22;;
22378;SDS011;11357;49.990;7.370;2023-05-02T15:01:22;10.80;;;7.32;;
22378;SDS011;11357;49.990;7.370;2023-05-02T15:03:48;9.37;;;5.93;;